sensor_id;sensor_type;location;lat;lon;timestamp;P1;durP1;ratioP1;P2;durP2;ratioP2
4646;SDS011;2336;47.822;7.564;2023-07-20T00:00:01;6.53;;;1.57;;
4646;SDS011;2336;47.822;7.564;2023-07-20T00:02:29;1.57;;;1.47;;
4646;SDS011;2336;47.822;7.564;2023-07-20T00:04:55;1.80;;;1.20;;
4646;SDS011;2336;47.822;7.564;2023-07-20T00:07:23;1.80;;;1.60;;
4646;SDS011;2336;47.822;7.564;2023-07-20T00:09:51;1.80;;;1.70;;
4646;SDS011;2336;47.822;7.564;2023-07-20T00:12:18;1.40;;;1.37;;
4646;SDS011;2336;47.822;7.564;2023-07-20T00:14:44;1.60;;;1.50;;
4646;SDS011;2336;47.822;7.564;2023-07-20T00:17:11;1.87;;;1.77;;
4646;SDS011;2336;47.822;7.564;2023-07-20T00:19:38;2.73;;;2.50;;
4646;SDS011;2336;47.822;7.564;2023-07-20T00:22:04;3.07;;;1.97;;
4646;SDS011;2336;47.822;7.564;2023-07-20T00:24:32;4.00;;;2.27;;
4646;SDS011;2336;47.822;7.564;2023-07-20T00:26:59;5.07;;;1.90;;
4646;SDS011;2336;47.822;7.564;2023-07-20T00:29:27;3.03;;;2.40;;
4646;SDS011;2336;47.822;7.564;2023-07-20T00:31:54;2.43;;;2.33;;
4646;SDS011;2336;47.822;7.564;2023-07-20T00:34:21;4.60;;;2.20;;
4646;SDS011;2336;47.822;7.564;2023-07-20T00:36:48;3.50;;;1.97;;
4646;SDS011;2336;47.822;7.564;2023-07-20T00:39:15;3.27;;;1.83;;
4646;SDS011;2336;47.822;7.564;2023-07-20T00:41:43;2.37;;;2.27;;
4646;SDS011;2336;47.822;7.564;2023-07-20T00:44:09;4.53;;;2.43;;
4646;SDS011;2336;47.822;7.564;2023-07-20T00:46:37;2.40;;;2.30;;
4646;SDS011;2336;47.822;7.564;2023-07-20T00:49:04;2.40;;;2.20;;
4646;SDS011;2336;47.822;7.564;2023-07-20T00:51:31;3.07;;;2.37;;
4646;SDS011;2336;47.822;7.564;2023-07-20T00:53:58;3.47;;;2.43;;
4646;SDS011;2336;47.822;7.564;2023-07-20T00:56:25;2.33;;;2.23;;
4646;SDS011;2336;47.822;7.564;2023-07-20T00:58:53;3.30;;;2.47;;
4646;SDS011;2336;47.822;7.564;2023-07-20T01:01:20;4.10;;;2.47;;
4646;SDS011;2336;47.822;7.564;2023-07-20T01:03:48;2.53;;;2.27;;
4646;SDS011;2336;47.822;7.564;2023-07-20T01:06:16;3.07;;;2.57;;
4646;SDS011;2336;47.822;7.564;2023-07-20T01:08:55;5.10;;;2.40;;
4646;SDS011;2336;47.822;7.564;2023-07-20T01:11:31;3.20;;;2.30;;
4646;SDS011;2336;47.822;7.564;2023-07-20T01:14:06;4.17;;;2.20;;
4646;SDS011;2336;47.822;7.564;2023-07-20T01:16:33;3.10;;;2.80;;
4646;SDS011;2336;47.822;7.564;2023-07-20T01:19:00;2.60;;;2.40;;
4646;SDS011;2336;47.822;7.564;2023-07-20T01:21:28;5.47;;;2.50;;
4646;SDS011;2336;47.822;7.564;2023-07-20T01:24:05;4.10;;;2.73;;
4646;SDS011;2336;47.822;7.564;2023-07-20T01:32:52;2.53;;;2.43;;
4646;SDS011;2336;47.822;7.564;2023-07-20T01:35:22;2.27;;;2.03;;
4646;SDS011;2336;47.822;7.564;2023-07-20T01:37:53;4.70;;;2.17;;
4646;SDS011;2336;47.822;7.564;2023-07-20T01:40:21;2.70;;;2.50;;
4646;SDS011;2336;47.822;7.564;2023-07-20T01:42:50;2.83;;;2.67;;
4646;SDS011;2336;47.822;7.564;2023-07-20T01:45:17;3.00;;;2.70;;
4646;SDS011;2336;47.822;7.564;2023-07-20T01:47:44;5.90;;;2.67;;
4646;SDS011;2336;47.822;7.564;2023-07-20T01:50:12;3.27;;;3.03;;
4646;SDS011;2336;47.822;7.564;2023-07-20T01:52:39;2.83;;;2.60;;
4646;SDS011;2336;47.822;7.564;2023-07-20T01:55:06;3.47;;;3.20;;
4646;SDS011;2336;47.822;7.564;2023-07-20T01:57:33;4.00;;;3.10;;
4646;SDS011;2336;47.822;7.564;2023-07-20T02:00:00;3.50;;;3.20;;
4646;SDS011;2336;47.822;7.564;2023-07-20T02:02:27;2.70;;;2.60;;
4646;SDS011;2336;47.822;7.564;2023-07-20T02:04:54;3.30;;;3.10;;
4646;SDS011;2336;47.822;7.564;2023-07-20T02:07:22;4.33;;;2.90;;
4646;SDS011;2336;47.822;7.564;2023-07-20T02:09:49;4.43;;;2.80;;
4646;SDS011;2336;47.822;7.564;2023-07-20T02:12:16;3.03;;;2.93;;
4646;SDS011;2336;47.822;7.564;2023-07-20T02:14:42;4.67;;;3.03;;
4646;SDS011;2336;47.822;7.564;2023-07-20T02:17:09;3.17;;;2.87;;
4646;SDS011;2336;47.822;7.564;2023-07-20T02:19:36;3.23;;;3.03;;
4646;SDS011;2336;47.822;7.564;2023-07-20T02:22:03;3.80;;;3.27;;
4646;SDS011;2336;47.822;7.564;2023-07-20T02:24:32;3.70;;;3.40;;
4646;SDS011;2336;47.822;7.564;2023-07-20T02:26:58;3.00;;;2.80;;
4646;SDS011;2336;47.822;7.564;2023-07-20T02:29:25;2.87;;;2.70;;
4646;SDS011;2336;47.822;7.564;2023-07-20T02:31:52;3.13;;;3.03;;
4646;SDS011;2336;47.822;7.564;2023-07-20T02:34:18;3.10;;;3.00;;
4646;SDS011;2336;47.822;7.564;2023-07-20T02:36:45;6.63;;;2.80;;
4646;SDS011;2336;47.822;7.564;2023-07-20T02:39:13;2.67;;;2.47;;
4646;SDS011;2336;47.822;7.564;2023-07-20T02:41:41;2.97;;;2.83;;
4646;SDS011;2336;47.822;7.564;2023-07-20T02:44:08;3.43;;;3.20;;
4646;SDS011;2336;47.822;7.564;2023-07-20T02:46:34;2.67;;;2.57;;
4646;SDS011;2336;47.822;7.564;2023-07-20T02:49:01;3.03;;;2.73;;
4646;SDS011;2336;47.822;7.564;2023-07-20T02:51:28;3.10;;;3.00;;
4646;SDS011;2336;47.822;7.564;2023-07-20T02:53:54;5.30;;;3.80;;
4646;SDS011;2336;47.822;7.564;2023-07-20T02:56:21;3.20;;;3.07;;
4646;SDS011;2336;47.822;7.564;2023-07-20T02:58:49;3.13;;;2.93;;
4646;SDS011;2336;47.822;7.564;2023-07-20T03:01:17;3.50;;;3.20;;
4646;SDS011;2336;47.822;7.564;2023-07-20T03:03:44;3.17;;;3.00;;
4646;SDS011;2336;47.822;7.564;2023-07-20T03:06:11;2.93;;;2.83;;
4646;SDS011;2336;47.822;7.564;2023-07-20T03:08:39;3.00;;;2.80;;
4646;SDS011;2336;47.822;7.564;2023-07-20T03:11:06;2.27;;;2.17;;
4646;SDS011;2336;47.822;7.564;2023-07-20T03:13:33;3.00;;;2.80;;
4646;SDS011;2336;47.822;7.564;2023-07-20T03:16:01;2.80;;;2.70;;
4646;SDS011;2336;47.822;7.564;2023-07-20T03:18:28;2.90;;;2.80;;
4646;SDS011;2336;47.822;7.564;2023-07-20T03:20:55;2.53;;;2.43;;
4646;SDS011;2336;47.822;7.564;2023-07-20T03:23:22;3.10;;;3.00;;
4646;SDS011;2336;47.822;7.564;2023-07-20T03:25:48;2.70;;;2.60;;
4646;SDS011;2336;47.822;7.564;2023-07-20T03:28:15;3.33;;;3.10;;
4646;SDS011;2336;47.822;7.564;2023-07-20T03:30:42;2.70;;;2.60;;
4646;SDS011;2336;47.822;7.564;2023-07-20T03:33:10;2.80;;;2.70;;
4646;SDS011;2336;47.822;7.564;2023-07-20T03:35:36;2.90;;;2.80;;
4646;SDS011;2336;47.822;7.564;2023-07-20T03:38:03;3.63;;;3.43;;
4646;SDS011;2336;47.822;7.564;2023-07-20T03:40:30;5.50;;;3.20;;
4646;SDS011;2336;47.822;7.564;2023-07-20T03:42:57;2.80;;;2.70;;
4646;SDS011;2336;47.822;7.564;2023-07-20T03:45:23;3.70;;;3.50;;
4646;SDS011;2336;47.822;7.564;2023-07-20T03:47:50;3.67;;;2.90;;
4646;SDS011;2336;47.822;7.564;2023-07-20T03:50:18;3.73;;;3.10;;
4646;SDS011;2336;47.822;7.564;2023-07-20T03:52:45;3.07;;;2.90;;
4646;SDS011;2336;47.822;7.564;2023-07-20T03:55:11;3.10;;;2.87;;
4646;SDS011;2336;47.822;7.564;2023-07-20T03:57:38;3.20;;;3.00;;
4646;SDS011;2336;47.822;7.564;2023-07-20T04:00:06;3.67;;;3.37;;
4646;SDS011;2336;47.822;7.564;2023-07-20T04:02:34;5.53;;;2.80;;
4646;SDS011;2336;47.822;7.564;2023-07-20T04:05:00;4.77;;;3.40;;
4646;SDS011;2336;47.822;7.564;2023-07-20T04:07:29;4.30;;;3.60;;
4646;SDS011;2336;47.822;7.564;2023-07-20T04:09:55;3.30;;;3.10;;
4646;SDS011;2336;47.822;7.564;2023-07-20T04:12:22;3.17;;;2.97;;
4646;SDS011;2336;47.822;7.564;2023-07-20T04:14:49;3.30;;;3.00;;
4646;SDS011;2336;47.822;7.564;2023-07-20T04:17:16;3.27;;;2.97;;
4646;SDS011;2336;47.822;7.564;2023-07-20T04:19:44;3.17;;;2.97;;
4646;SDS011;2336;47.822;7.564;2023-07-20T04:22:11;3.20;;;3.07;;
4646;SDS011;2336;47.822;7.564;2023-07-20T04:24:41;5.43;;;3.30;;
4646;SDS011;2336;47.822;7.564;2023-07-20T04:27:08;3.20;;;3.10;;
4646;SDS011;2336;47.822;7.564;2023-07-20T04:29:35;6.33;;;2.97;;
4646;SDS011;2336;47.822;7.564;2023-07-20T04:32:01;3.47;;;3.27;;
4646;SDS011;2336;47.822;7.564;2023-07-20T04:34:28;3.07;;;2.97;;
4646;SDS011;2336;47.822;7.564;2023-07-20T04:36:55;4.97;;;3.00;;
4646;SDS011;2336;47.822;7.564;2023-07-20T04:39:22;2.77;;;2.67;;
4646;SDS011;2336;47.822;7.564;2023-07-20T04:41:50;3.83;;;3.60;;
4646;SDS011;2336;47.822;7.564;2023-07-20T04:44:16;3.53;;;3.23;;
4646;SDS011;2336;47.822;7.564;2023-07-20T04:46:43;3.10;;;3.00;;
4646;SDS011;2336;47.822;7.564;2023-07-20T04:49:10;3.17;;;2.97;;
4646;SDS011;2336;47.822;7.564;2023-07-20T04:51:37;3.17;;;2.90;;
4646;SDS011;2336;47.822;7.564;2023-07-20T04:54:04;3.40;;;3.10;;
4646;SDS011;2336;47.822;7.564;2023-07-20T04:56:31;3.17;;;2.97;;
4646;SDS011;2336;47.822;7.564;2023-07-20T04:58:59;3.13;;;2.93;;
4646;SDS011;2336;47.822;7.564;2023-07-20T05:01:26;3.20;;;3.10;;
4646;SDS011;2336;47.822;7.564;2023-07-20T05:03:53;2.67;;;2.57;;
4646;SDS011;2336;47.822;7.564;2023-07-20T05:06:19;3.20;;;3.10;;
4646;SDS011;2336;47.822;7.564;2023-07-20T05:08:46;4.00;;;2.93;;
4646;SDS011;2336;47.822;7.564;2023-07-20T05:11:13;3.50;;;3.03;;
4646;SDS011;2336;47.822;7.564;2023-07-20T05:13:40;3.63;;;3.47;;
4646;SDS011;2336;47.822;7.564;2023-07-20T05:16:08;3.43;;;3.03;;
4646;SDS011;2336;47.822;7.564;2023-07-20T05:18:34;3.13;;;2.90;;
4646;SDS011;2336;47.822;7.564;2023-07-20T05:21:01;3.87;;;3.47;;
4646;SDS011;2336;47.822;7.564;2023-07-20T05:23:28;3.70;;;3.50;;
4646;SDS011;2336;47.822;7.564;2023-07-20T05:25:55;3.57;;;3.37;;
4646;SDS011;2336;47.822;7.564;2023-07-20T05:28:22;3.37;;;3.17;;
4646;SDS011;2336;47.822;7.564;2023-07-20T05:30:49;3.10;;;2.97;;
4646;SDS011;2336;47.822;7.564;2023-07-20T05:33:17;3.13;;;3.03;;
4646;SDS011;2336;47.822;7.564;2023-07-20T05:35:44;3.03;;;2.83;;
4646;SDS011;2336;47.822;7.564;2023-07-20T05:38:11;4.13;;;2.70;;
4646;SDS011;2336;47.822;7.564;2023-07-20T05:40:39;3.30;;;3.00;;
4646;SDS011;2336;47.822;7.564;2023-07-20T05:43:07;2.70;;;2.60;;
4646;SDS011;2336;47.822;7.564;2023-07-20T05:45:33;3.23;;;3.03;;
4646;SDS011;2336;47.822;7.564;2023-07-20T05:48:00;4.13;;;3.13;;
4646;SDS011;2336;47.822;7.564;2023-07-20T05:50:28;3.37;;;3.07;;
4646;SDS011;2336;47.822;7.564;2023-07-20T05:52:55;5.90;;;2.47;;
4646;SDS011;2336;47.822;7.564;2023-07-20T05:55:22;3.33;;;3.00;;
4646;SDS011;2336;47.822;7.564;2023-07-20T05:57:48;2.83;;;2.73;;
4646;SDS011;2336;47.822;7.564;2023-07-20T06:00:16;3.00;;;2.80;;
4646;SDS011;2336;47.822;7.564;2023-07-20T06:02:44;3.73;;;3.43;;
4646;SDS011;2336;47.822;7.564;2023-07-20T06:05:12;5.23;;;3.00;;
4646;SDS011;2336;47.822;7.564;2023-07-20T06:07:40;3.80;;;3.40;;
4646;SDS011;2336;47.822;7.564;2023-07-20T06:10:07;3.40;;;3.20;;
4646;SDS011;2336;47.822;7.564;2023-07-20T06:12:34;5.57;;;3.57;;
4646;SDS011;2336;47.822;7.564;2023-07-20T06:15:01;3.80;;;3.37;;
4646;SDS011;2336;47.822;7.564;2023-07-20T06:17:29;3.33;;;3.13;;
4646;SDS011;2336;47.822;7.564;2023-07-20T06:19:56;5.17;;;3.50;;
4646;SDS011;2336;47.822;7.564;2023-07-20T06:22:23;8.50;;;3.33;;
4646;SDS011;2336;47.822;7.564;2023-07-20T06:24:51;4.10;;;3.30;;
4646;SDS011;2336;47.822;7.564;2023-07-20T06:27:18;3.87;;;3.20;;
4646;SDS011;2336;47.822;7.564;2023-07-20T06:29:44;3.57;;;3.27;;
4646;SDS011;2336;47.822;7.564;2023-07-20T06:32:11;2.77;;;2.57;;
4646;SDS011;2336;47.822;7.564;2023-07-20T06:34:38;3.13;;;2.93;;
4646;SDS011;2336;47.822;7.564;2023-07-20T06:37:05;2.77;;;2.57;;
4646;SDS011;2336;47.822;7.564;2023-07-20T06:39:32;11.63;;;3.70;;
4646;SDS011;2336;47.822;7.564;2023-07-20T06:42:00;3.57;;;3.27;;
4646;SDS011;2336;47.822;7.564;2023-07-20T06:44:27;3.60;;;3.10;;
4646;SDS011;2336;47.822;7.564;2023-07-20T06:46:53;4.10;;;3.50;;
4646;SDS011;2336;47.822;7.564;2023-07-20T06:49:24;3.60;;;3.27;;
4646;SDS011;2336;47.822;7.564;2023-07-20T06:51:52;8.10;;;3.57;;
4646;SDS011;2336;47.822;7.564;2023-07-20T06:54:18;6.13;;;3.20;;
4646;SDS011;2336;47.822;7.564;2023-07-20T06:56:45;3.57;;;3.37;;
4646;SDS011;2336;47.822;7.564;2023-07-20T06:59:14;4.93;;;3.60;;
4646;SDS011;2336;47.822;7.564;2023-07-20T07:01:40;3.77;;;3.43;;
4646;SDS011;2336;47.822;7.564;2023-07-20T07:04:07;3.50;;;3.30;;
4646;SDS011;2336;47.822;7.564;2023-07-20T07:06:35;3.90;;;3.30;;
4646;SDS011;2336;47.822;7.564;2023-07-20T07:09:03;4.00;;;3.60;;
4646;SDS011;2336;47.822;7.564;2023-07-20T07:11:30;5.70;;;3.43;;
4646;SDS011;2336;47.822;7.564;2023-07-20T07:13:57;3.67;;;3.47;;
4646;SDS011;2336;47.822;7.564;2023-07-20T07:16:25;3.73;;;3.43;;
4646;SDS011;2336;47.822;7.564;2023-07-20T07:18:51;3.67;;;3.40;;
4646;SDS011;2336;47.822;7.564;2023-07-20T07:21:18;3.60;;;3.30;;
4646;SDS011;2336;47.822;7.564;2023-07-20T07:23:45;4.07;;;3.40;;
4646;SDS011;2336;47.822;7.564;2023-07-20T07:26:12;9.10;;;3.23;;
4646;SDS011;2336;47.822;7.564;2023-07-20T07:28:39;5.23;;;2.90;;
4646;SDS011;2336;47.822;7.564;2023-07-20T07:31:06;8.87;;;3.23;;
4646;SDS011;2336;47.822;7.564;2023-07-20T07:33:34;3.40;;;3.20;;
4646;SDS011;2336;47.822;7.564;2023-07-20T07:36:01;3.90;;;3.30;;
4646;SDS011;2336;47.822;7.564;2023-07-20T07:38:27;3.57;;;3.27;;
4646;SDS011;2336;47.822;7.564;2023-07-20T07:40:54;6.57;;;3.20;;
4646;SDS011;2336;47.822;7.564;2023-07-20T07:43:21;6.30;;;3.00;;
4646;SDS011;2336;47.822;7.564;2023-07-20T07:45:48;2.97;;;2.87;;
4646;SDS011;2336;47.822;7.564;2023-07-20T07:48:15;2.80;;;2.67;;
4646;SDS011;2336;47.822;7.564;2023-07-20T07:50:43;2.93;;;2.70;;
4646;SDS011;2336;47.822;7.564;2023-07-20T07:53:10;2.90;;;2.70;;
4646;SDS011;2336;47.822;7.564;2023-07-20T07:55:36;3.07;;;2.60;;
4646;SDS011;2336;47.822;7.564;2023-07-20T07:58:03;3.07;;;2.90;;
4646;SDS011;2336;47.822;7.564;2023-07-20T08:00:30;2.80;;;2.60;;
4646;SDS011;2336;47.822;7.564;2023-07-20T08:02:57;2.67;;;2.57;;
4646;SDS011;2336;47.822;7.564;2023-07-20T08:05:23;2.50;;;2.30;;
4646;SDS011;2336;47.822;7.564;2023-07-20T08:07:52;3.00;;;2.70;;
4646;SDS011;2336;47.822;7.564;2023-07-20T08:10:19;2.90;;;2.70;;
4646;SDS011;2336;47.822;7.564;2023-07-20T08:12:45;4.53;;;2.70;;
4646;SDS011;2336;47.822;7.564;2023-07-20T08:15:12;3.67;;;2.77;;
4646;SDS011;2336;47.822;7.564;2023-07-20T08:17:40;2.87;;;2.67;;
4646;SDS011;2336;47.822;7.564;2023-07-20T08:20:07;2.77;;;2.57;;
4646;SDS011;2336;47.822;7.564;2023-07-20T08:22:37;2.57;;;2.40;;
4646;SDS011;2336;47.822;7.564;2023-07-20T08:25:05;3.27;;;2.43;;
4646;SDS011;2336;47.822;7.564;2023-07-20T08:27:33;6.70;;;2.90;;
4646;SDS011;2336;47.822;7.564;2023-07-20T08:29:59;2.70;;;2.50;;
4646;SDS011;2336;47.822;7.564;2023-07-20T08:32:27;2.73;;;2.53;;
4646;SDS011;2336;47.822;7.564;2023-07-20T08:34:54;4.80;;;2.93;;
4646;SDS011;2336;47.822;7.564;2023-07-20T08:37:20;3.07;;;2.87;;
4646;SDS011;2336;47.822;7.564;2023-07-20T08:39:47;2.83;;;2.60;;
4646;SDS011;2336;47.822;7.564;2023-07-20T08:42:15;2.87;;;2.67;;
4646;SDS011;2336;47.822;7.564;2023-07-20T08:44:43;2.80;;;2.70;;
4646;SDS011;2336;47.822;7.564;2023-07-20T08:47:11;3.43;;;2.87;;
4646;SDS011;2336;47.822;7.564;2023-07-20T08:49:39;2.73;;;2.63;;
4646;SDS011;2336;47.822;7.564;2023-07-20T08:52:07;2.50;;;2.40;;
4646;SDS011;2336;47.822;7.564;2023-07-20T08:54:35;4.03;;;2.57;;
4646;SDS011;2336;47.822;7.564;2023-07-20T08:57:03;3.23;;;2.40;;
4646;SDS011;2336;47.822;7.564;2023-07-20T08:59:32;3.30;;;2.50;;
4646;SDS011;2336;47.822;7.564;2023-07-20T09:02:02;2.87;;;2.67;;
4646;SDS011;2336;47.822;7.564;2023-07-20T09:04:30;3.90;;;2.97;;
4646;SDS011;2336;47.822;7.564;2023-07-20T09:06:57;3.83;;;2.50;;
4646;SDS011;2336;47.822;7.564;2023-07-20T09:09:24;7.07;;;2.77;;
4646;SDS011;2336;47.822;7.564;2023-07-20T09:11:51;8.73;;;2.83;;
4646;SDS011;2336;47.822;7.564;2023-07-20T09:14:17;3.53;;;2.30;;
4646;SDS011;2336;47.822;7.564;2023-07-20T09:16:49;2.53;;;2.40;;
4646;SDS011;2336;47.822;7.564;2023-07-20T09:19:16;2.57;;;2.47;;
4646;SDS011;2336;47.822;7.564;2023-07-20T09:21:44;2.17;;;2.07;;
4646;SDS011;2336;47.822;7.564;2023-07-20T09:24:11;2.20;;;2.10;;
4646;SDS011;2336;47.822;7.564;2023-07-20T09:26:42;2.40;;;2.20;;
4646;SDS011;2336;47.822;7.564;2023-07-20T09:29:09;3.57;;;2.50;;
4646;SDS011;2336;47.822;7.564;2023-07-20T09:31:36;2.30;;;2.20;;
4646;SDS011;2336;47.822;7.564;2023-07-20T09:34:04;2.10;;;2.00;;
4646;SDS011;2336;47.822;7.564;2023-07-20T09:36:32;2.40;;;2.20;;
4646;SDS011;2336;47.822;7.564;2023-07-20T09:39:00;2.63;;;2.43;;
4646;SDS011;2336;47.822;7.564;2023-07-20T09:41:27;2.53;;;2.33;;
4646;SDS011;2336;47.822;7.564;2023-07-20T09:43:53;2.63;;;2.53;;
4646;SDS011;2336;47.822;7.564;2023-07-20T09:46:20;2.43;;;2.33;;
4646;SDS011;2336;47.822;7.564;2023-07-20T09:48:51;2.50;;;2.30;;
4646;SDS011;2336;47.822;7.564;2023-07-20T09:51:20;2.10;;;2.00;;
4646;SDS011;2336;47.822;7.564;2023-07-20T09:53:48;2.30;;;2.10;;
4646;SDS011;2336;47.822;7.564;2023-07-20T09:56:17;3.20;;;1.90;;
4646;SDS011;2336;47.822;7.564;2023-07-20T09:58:47;2.97;;;2.53;;
4646;SDS011;2336;47.822;7.564;2023-07-20T10:01:15;2.20;;;2.03;;
4646;SDS011;2336;47.822;7.564;2023-07-20T10:03:47;2.40;;;2.10;;
4646;SDS011;2336;47.822;7.564;2023-07-20T10:06:22;2.20;;;2.10;;
4646;SDS011;2336;47.822;7.564;2023-07-20T10:08:52;3.97;;;2.30;;
4646;SDS011;2336;47.822;7.564;2023-07-20T10:11:20;2.30;;;2.20;;
4646;SDS011;2336;47.822;7.564;2023-07-20T10:13:49;2.10;;;2.00;;
4646;SDS011;2336;47.822;7.564;2023-07-20T10:16:22;2.27;;;2.17;;
4646;SDS011;2336;47.822;7.564;2023-07-20T10:18:55;2.87;;;2.10;;
4646;SDS011;2336;47.822;7.564;2023-07-20T10:21:29;3.93;;;1.83;;
4646;SDS011;2336;47.822;7.564;2023-07-20T10:23:56;4.50;;;1.80;;
4646;SDS011;2336;47.822;7.564;2023-07-20T10:26:23;2.23;;;2.03;;
4646;SDS011;2336;47.822;7.564;2023-07-20T10:28:50;2.37;;;1.90;;
4646;SDS011;2336;47.822;7.564;2023-07-20T10:31:18;2.50;;;1.73;;
4646;SDS011;2336;47.822;7.564;2023-07-20T10:33:45;2.27;;;2.10;;
4646;SDS011;2336;47.822;7.564;2023-07-20T10:36:15;2.43;;;2.33;;
4646;SDS011;2336;47.822;7.564;2023-07-20T10:38:52;4.33;;;2.27;;
4646;SDS011;2336;47.822;7.564;2023-07-20T10:41:19;2.60;;;2.40;;
4646;SDS011;2336;47.822;7.564;2023-07-20T10:43:49;3.10;;;2.03;;
4646;SDS011;2336;47.822;7.564;2023-07-20T10:46:33;2.87;;;1.93;;
4646;SDS011;2336;47.822;7.564;2023-07-20T10:49:00;2.00;;;1.90;;
4646;SDS011;2336;47.822;7.564;2023-07-20T10:51:29;4.40;;;2.47;;
4646;SDS011;2336;47.822;7.564;2023-07-20T10:53:58;2.03;;;1.93;;
4646;SDS011;2336;47.822;7.564;2023-07-20T10:56:29;2.43;;;2.33;;
4646;SDS011;2336;47.822;7.564;2023-07-20T10:58:58;2.50;;;2.00;;
4646;SDS011;2336;47.822;7.564;2023-07-20T11:01:28;5.60;;;1.70;;
4646;SDS011;2336;47.822;7.564;2023-07-20T11:03:57;3.27;;;2.27;;
4646;SDS011;2336;47.822;7.564;2023-07-20T11:06:30;3.67;;;2.13;;
4646;SDS011;2336;47.822;7.564;2023-07-20T11:09:06;2.40;;;2.00;;
4646;SDS011;2336;47.822;7.564;2023-07-20T11:11:36;2.03;;;2.00;;
4646;SDS011;2336;47.822;7.564;2023-07-20T11:14:05;2.83;;;1.87;;
4646;SDS011;2336;47.822;7.564;2023-07-20T11:16:35;3.83;;;2.00;;
4646;SDS011;2336;47.822;7.564;2023-07-20T11:19:04;2.07;;;1.87;;
4646;SDS011;2336;47.822;7.564;2023-07-20T11:21:43;3.43;;;2.10;;
4646;SDS011;2336;47.822;7.564;2023-07-20T11:24:12;2.27;;;2.17;;
4646;SDS011;2336;47.822;7.564;2023-07-20T11:26:43;2.33;;;2.23;;
4646;SDS011;2336;47.822;7.564;2023-07-20T11:29:11;2.00;;;1.90;;
4646;SDS011;2336;47.822;7.564;2023-07-20T11:31:38;2.10;;;2.00;;
4646;SDS011;2336;47.822;7.564;2023-07-20T11:34:05;2.13;;;2.03;;
4646;SDS011;2336;47.822;7.564;2023-07-20T11:36:33;9.50;;;2.00;;
4646;SDS011;2336;47.822;7.564;2023-07-20T11:39:00;3.67;;;2.30;;
4646;SDS011;2336;47.822;7.564;2023-07-20T11:41:31;3.47;;;2.30;;
4646;SDS011;2336;47.822;7.564;2023-07-20T11:43:58;3.37;;;2.37;;
4646;SDS011;2336;47.822;7.564;2023-07-20T11:46:25;2.80;;;2.00;;
4646;SDS011;2336;47.822;7.564;2023-07-20T11:48:57;5.37;;;2.10;;
4646;SDS011;2336;47.822;7.564;2023-07-20T11:51:24;2.20;;;2.00;;
4646;SDS011;2336;47.822;7.564;2023-07-20T11:53:52;3.70;;;2.13;;
4646;SDS011;2336;47.822;7.564;2023-07-20T11:56:19;4.30;;;2.00;;
4646;SDS011;2336;47.822;7.564;2023-07-20T11:58:47;1.80;;;1.70;;
4646;SDS011;2336;47.822;7.564;2023-07-20T12:01:14;4.17;;;1.63;;
4646;SDS011;2336;47.822;7.564;2023-07-20T12:03:41;1.80;;;1.70;;
4646;SDS011;2336;47.822;7.564;2023-07-20T12:06:08;2.13;;;2.00;;
4646;SDS011;2336;47.822;7.564;2023-07-20T12:08:37;2.00;;;1.90;;
4646;SDS011;2336;47.822;7.564;2023-07-20T12:11:05;4.27;;;1.73;;
4646;SDS011;2336;47.822;7.564;2023-07-20T12:13:36;2.30;;;2.10;;
4646;SDS011;2336;47.822;7.564;2023-07-20T12:16:08;2.40;;;2.23;;
4646;SDS011;2336;47.822;7.564;2023-07-20T12:18:36;2.17;;;2.07;;
4646;SDS011;2336;47.822;7.564;2023-07-20T12:21:02;6.43;;;2.17;;
4646;SDS011;2336;47.822;7.564;2023-07-20T12:23:34;1.87;;;1.77;;
4646;SDS011;2336;47.822;7.564;2023-07-20T12:26:01;2.10;;;2.00;;
4646;SDS011;2336;47.822;7.564;2023-07-20T12:28:28;2.23;;;2.13;;
4646;SDS011;2336;47.822;7.564;2023-07-20T12:30:55;2.80;;;1.97;;
4646;SDS011;2336;47.822;7.564;2023-07-20T12:33:23;1.90;;;1.80;;
4646;SDS011;2336;47.822;7.564;2023-07-20T12:35:50;1.77;;;1.67;;
4646;SDS011;2336;47.822;7.564;2023-07-20T12:38:20;3.47;;;1.93;;
4646;SDS011;2336;47.822;7.564;2023-07-20T12:40:48;1.73;;;1.70;;
4646;SDS011;2336;47.822;7.564;2023-07-20T12:43:15;2.00;;;1.90;;
4646;SDS011;2336;47.822;7.564;2023-07-20T12:45:42;1.93;;;1.83;;
4646;SDS011;2336;47.822;7.564;2023-07-20T12:48:08;2.27;;;2.17;;
4646;SDS011;2336;47.822;7.564;2023-07-20T12:50:36;2.10;;;2.00;;
4646;SDS011;2336;47.822;7.564;2023-07-20T12:53:03;3.07;;;1.97;;
4646;SDS011;2336;47.822;7.564;2023-07-20T12:55:30;1.70;;;1.60;;
4646;SDS011;2336;47.822;7.564;2023-07-20T12:57:57;2.17;;;2.07;;
4646;SDS011;2336;47.822;7.564;2023-07-20T13:00:24;1.93;;;1.93;;
4646;SDS011;2336;47.822;7.564;2023-07-20T13:02:51;1.80;;;1.70;;
4646;SDS011;2336;47.822;7.564;2023-07-20T13:05:18;1.93;;;1.83;;
4646;SDS011;2336;47.822;7.564;2023-07-20T13:07:46;2.00;;;1.90;;
4646;SDS011;2336;47.822;7.564;2023-07-20T13:10:12;2.00;;;1.90;;
4646;SDS011;2336;47.822;7.564;2023-07-20T13:12:39;4.43;;;1.60;;
4646;SDS011;2336;47.822;7.564;2023-07-20T13:15:06;2.13;;;1.80;;
4646;SDS011;2336;47.822;7.564;2023-07-20T13:17:35;3.17;;;1.90;;
4646;SDS011;2336;47.822;7.564;2023-07-20T13:20:02;2.60;;;2.17;;
4646;SDS011;2336;47.822;7.564;2023-07-20T13:22:30;3.80;;;2.00;;
4646;SDS011;2336;47.822;7.564;2023-07-20T13:24:58;2.93;;;1.83;;
4646;SDS011;2336;47.822;7.564;2023-07-20T13:27:25;2.13;;;1.90;;
4646;SDS011;2336;47.822;7.564;2023-07-20T13:29:51;2.43;;;2.10;;
4646;SDS011;2336;47.822;7.564;2023-07-20T13:32:18;3.10;;;2.00;;
4646;SDS011;2336;47.822;7.564;2023-07-20T13:34:45;2.10;;;1.80;;
4646;SDS011;2336;47.822;7.564;2023-07-20T13:37:13;1.93;;;1.83;;
4646;SDS011;2336;47.822;7.564;2023-07-20T13:39:41;2.17;;;2.07;;
4646;SDS011;2336;47.822;7.564;2023-07-20T13:42:09;2.17;;;2.07;;
4646;SDS011;2336;47.822;7.564;2023-07-20T13:44:37;1.60;;;1.60;;
4646;SDS011;2336;47.822;7.564;2023-07-20T13:47:04;7.73;;;2.20;;
4646;SDS011;2336;47.822;7.564;2023-07-20T13:49:31;1.90;;;1.80;;
4646;SDS011;2336;47.822;7.564;2023-07-20T13:51:58;5.03;;;1.50;;
4646;SDS011;2336;47.822;7.564;2023-07-20T13:54:25;5.73;;;2.00;;
4646;SDS011;2336;47.822;7.564;2023-07-20T13:56:52;2.87;;;2.67;;
4646;SDS011;2336;47.822;7.564;2023-07-20T13:59:20;2.10;;;1.90;;
4646;SDS011;2336;47.822;7.564;2023-07-20T14:01:47;1.90;;;1.80;;
4646;SDS011;2336;47.822;7.564;2023-07-20T14:04:14;1.70;;;1.60;;
4646;SDS011;2336;47.822;7.564;2023-07-20T14:06:42;1.93;;;1.73;;
4646;SDS011;2336;47.822;7.564;2023-07-20T14:09:09;1.90;;;1.80;;
4646;SDS011;2336;47.822;7.564;2023-07-20T14:11:35;1.90;;;1.70;;
4646;SDS011;2336;47.822;7.564;2023-07-20T14:14:02;1.80;;;1.70;;
4646;SDS011;2336;47.822;7.564;2023-07-20T14:16:30;2.20;;;2.10;;
4646;SDS011;2336;47.822;7.564;2023-07-20T14:18:58;1.90;;;1.80;;
4646;SDS011;2336;47.822;7.564;2023-07-20T14:21:25;2.60;;;1.67;;
4646;SDS011;2336;47.822;7.564;2023-07-20T14:23:52;3.90;;;1.97;;
4646;SDS011;2336;47.822;7.564;2023-07-20T14:26:19;1.80;;;1.70;;
4646;SDS011;2336;47.822;7.564;2023-07-20T14:28:46;2.07;;;1.87;;
4646;SDS011;2336;47.822;7.564;2023-07-20T14:31:13;1.43;;;1.43;;
4646;SDS011;2336;47.822;7.564;2023-07-20T14:33:41;1.60;;;1.50;;
4646;SDS011;2336;47.822;7.564;2023-07-20T14:36:08;1.70;;;1.60;;
4646;SDS011;2336;47.822;7.564;2023-07-20T14:38:34;2.00;;;1.90;;
4646;SDS011;2336;47.822;7.564;2023-07-20T14:41:01;2.83;;;1.53;;
4646;SDS011;2336;47.822;7.564;2023-07-20T14:43:30;2.10;;;2.00;;
4646;SDS011;2336;47.822;7.564;2023-07-20T14:45:57;1.73;;;1.63;;
4646;SDS011;2336;47.822;7.564;2023-07-20T14:48:24;1.90;;;1.70;;
4646;SDS011;2336;47.822;7.564;2023-07-20T14:50:52;4.40;;;2.10;;
4646;SDS011;2336;47.822;7.564;2023-07-20T14:53:19;4.73;;;1.50;;
4646;SDS011;2336;47.822;7.564;2023-07-20T14:55:45;2.30;;;1.87;;
4646;SDS011;2336;47.822;7.564;2023-07-20T14:58:12;7.23;;;1.87;;
4646;SDS011;2336;47.822;7.564;2023-07-20T15:00:39;1.97;;;1.87;;
4646;SDS011;2336;47.822;7.564;2023-07-20T15:03:05;2.30;;;2.13;;
4646;SDS011;2336;47.822;7.564;2023-07-20T15:05:34;2.20;;;1.90;;
4646;SDS011;2336;47.822;7.564;2023-07-20T15:08:03;1.90;;;1.80;;
4646;SDS011;2336;47.822;7.564;2023-07-20T15:10:31;2.80;;;1.93;;
4646;SDS011;2336;47.822;7.564;2023-07-20T15:12:58;1.97;;;1.87;;
4646;SDS011;2336;47.822;7.564;2023-07-20T15:15:25;1.70;;;1.60;;
4646;SDS011;2336;47.822;7.564;2023-07-20T15:17:52;1.73;;;1.63;;
4646;SDS011;2336;47.822;7.564;2023-07-20T15:20:19;2.83;;;1.50;;
4646;SDS011;2336;47.822;7.564;2023-07-20T15:22:46;2.10;;;2.00;;